Pagrindinis puslapis
METAR-TAF:

METAR-TAF

Oro uostai :

Podgoricos oro uostas

Podgorica, Juodkalnija

platuma: 42-26N, ilguma: 019-17E, Aukštis: 53 m

Dabartinis oras

Ataskaita buvo paskelbta 43 minutes, ne 02:30 UTC
Vėjas 3 kt iš Šiaurės
Temperatūra 0°C
Drėgmė 74%
Slėgis 1024 hPa
Matomumas 10 km arba daugiau
nėra debesų žemiau 1500 m ir nėra kamuolinių lietaus debesų

METAR: LYPG 180230Z 35003KT CAVOK M00/M04 Q1024 NOSIG

Laikas: 04:13 (03:13 UTC)

Prognozė

Ataskaita buvo paskelbta 4 valandos ir 13 minutes, ne 23:00 UTC
Prognozė galioja nuo 18 metu 00 UTC su 18 metu 24 UTC
Vėjas 5 kt iš Šiaurės
Matomumas 10 km arba daugiau
nėra debesų žemiau 1500 m ir nėra kamuolinių lietaus debesų
Tikimybė 30% :
Laikinai
nuo 18 metu 00 UTC su 18 metu 07 UTC
Matomumas: 2000 m
rūkana

TAF: LYPG 172300Z 1800/1824 36005KT CAVOK TX14/1813Z TNM02/1806Z PROB30 TEMPO 1800/1807 2000 BR

Orai ataskaitas ir orų prognozės (METAR, TAF).

turimą stotys yra geltonos ir raudonos taškus žemėlapyje.

Perkelti pele per norėdami pamatyti stoties vardą.

Tada spustelėkite, norėdami matyti oro stebėjimo ir prognozės.

Norėdami pakeisti žemėlapį: spustelėkite ant žalios mygtukų su juodo kryžiaus žemyn,; žalią mygtuką su brūkšneliu, jei norite nutolinti; arba žalių rodyklių gretimoms žemėlapius.


METAR-TAF: